トロント/ピアソン の空港の天気 - METARとTAF

トロント・ピアソン国際空港 ( CYYZ / YYZ ) - カナダ オンタリオ州トロント
飛行場実況気象(Metar)
観測時間08/18 06:00 EDT (08/18 10:00 UTC)
風向・風速南南西 2m/s
視程9650m
天気現象もや
少しの雲 雲底高度 610m
少しの雲 雲底高度 3050m
気温21℃
湿度94%
気圧1005.5hPa
METARCYYZ 181000Z 20003KT 6SM BR FEW020 FEW100 21/20 A2969 RMK SF1AC1 SF TR AC TR SLP055 DENSITY ALT 1700FT
過去の天気等 Google飛行場航空写真 Wunderground天気予報

過去48時間のMETAR

飛行場予報(TAF)
発表時間: 8/18 04:39 EDT (8/18 08:39 UTC)
予報対象時間: 18日5時 EDT ~ 19日8時 EDT
風向・風速南南西 3m/s
視程10km以上
少しの雲 雲底高度 370m
18日5時 EDT ~ 18日7時 EDT に一時的に
視程8,050m
天気現象もや
全天の8割程度の雲 雲底高度 210m
18日7時 EDT から
風向・風速南西 5m/s
視程10km以上
全天の4割程度の雲 雲底高度 460m
18日7時 EDT ~ 18日11時 EDT に一時的に
全天の8割程度の雲 雲底高度 460m
18日11時 EDT から
風向・風速南西 8m/s 瞬間風速 13m/s
視程10km以上
全天の8割程度の雲 雲底高度 610m
18日11時 EDT ~ 18日19時 EDT に一時的に
全天の8割程度の雲 雲底高度 760m
18日19時 EDT から
風向・風速西南西 6m/s 瞬間風速 11m/s
視程10km以上
全天の8割程度の雲 雲底高度 610m
18日20時 EDT ~ 18日22時 EDT に徐々に
風向・風速西 5m/s
TAF CYYZ 180839Z 1809/1912 21006KT P6SM FEW012
TEMPO 1809/1811 5SM BR BKN007
FM181100 23010KT P6SM SCT015
TEMPO 1811/1815 BKN015
FM181500 23015G25KT P6SM BKN020
TEMPO 1815/1823 BKN025
FM182300 25012G22KT P6SM BKN020
BECMG 1900/1902 26010KT RMK NXT FCST BY 181200Z